sensor_id;sensor_type;location;lat;lon;timestamp;temperature;humidity
12180;DHT22;6153;51.490;6.586;2022-08-27T00:02:13;18.20;99.90
12180;DHT22;6153;51.490;6.586;2022-08-27T00:05:14;18.20;99.90
12180;DHT22;6153;51.490;6.586;2022-08-27T00:08:15;18.20;99.90
12180;DHT22;6153;51.490;6.586;2022-08-27T00:11:16;18.30;99.90
12180;DHT22;6153;51.490;6.586;2022-08-27T00:14:17;18.30;99.90
12180;DHT22;6153;51.490;6.586;2022-08-27T00:17:17;18.20;99.90
12180;DHT22;6153;51.490;6.586;2022-08-27T00:20:20;18.20;99.90
12180;DHT22;6153;51.490;6.586;2022-08-27T00:23:21;18.20;99.90
12180;DHT22;6153;51.490;6.586;2022-08-27T00:26:21;18.30;99.90
12180;DHT22;6153;51.490;6.586;2022-08-27T00:29:23;18.20;99.90
12180;DHT22;6153;51.490;6.586;2022-08-27T00:32:25;18.20;99.90
12180;DHT22;6153;51.490;6.586;2022-08-27T00:35:26;18.20;99.90
12180;DHT22;6153;51.490;6.586;2022-08-27T00:38:26;18.20;99.90
12180;DHT22;6153;51.490;6.586;2022-08-27T00:41:27;18.30;99.90
12180;DHT22;6153;51.490;6.586;2022-08-27T00:44:27;18.20;99.90
12180;DHT22;6153;51.490;6.586;2022-08-27T00:47:29;18.20;99.90
12180;DHT22;6153;51.490;6.586;2022-08-27T00:50:32;18.30;99.90
12180;DHT22;6153;51.490;6.586;2022-08-27T00:53:33;18.20;99.90
12180;DHT22;6153;51.490;6.586;2022-08-27T00:56:39;18.20;99.90
12180;DHT22;6153;51.490;6.586;2022-08-27T00:59:43;18.10;99.90
12180;DHT22;6153;51.490;6.586;2022-08-27T01:02:44;18.20;99.90
12180;DHT22;6153;51.490;6.586;2022-08-27T01:05:46;18.20;99.90
12180;DHT22;6153;51.490;6.586;2022-08-27T01:08:54;18.20;99.90
12180;DHT22;6153;51.490;6.586;2022-08-27T01:11:56;18.10;99.90
12180;DHT22;6153;51.490;6.586;2022-08-27T01:14:57;18.20;99.90
12180;DHT22;6153;51.490;6.586;2022-08-27T01:17:57;18.10;99.90
12180;DHT22;6153;51.490;6.586;2022-08-27T01:21:00;18.10;99.90
12180;DHT22;6153;51.490;6.586;2022-08-27T01:27:04;18.20;99.90
12180;DHT22;6153;51.490;6.586;2022-08-27T01:30:07;18.10;99.90
12180;DHT22;6153;51.490;6.586;2022-08-27T01:33:12;18.10;99.90
12180;DHT22;6153;51.490;6.586;2022-08-27T01:36:16;18.10;99.90
12180;DHT22;6153;51.490;6.586;2022-08-27T01:39:16;18.00;99.90
12180;DHT22;6153;51.490;6.586;2022-08-27T01:42:18;18.10;99.90
12180;DHT22;6153;51.490;6.586;2022-08-27T01:45:21;18.10;99.90
12180;DHT22;6153;51.490;6.586;2022-08-27T01:48:23;18.10;99.90
12180;DHT22;6153;51.490;6.586;2022-08-27T01:51:24;18.10;99.90
12180;DHT22;6153;51.490;6.586;2022-08-27T01:54:24;18.00;99.90
12180;DHT22;6153;51.490;6.586;2022-08-27T01:57:25;18.00;99.90
12180;DHT22;6153;51.490;6.586;2022-08-27T02:00:28;18.10;99.90
12180;DHT22;6153;51.490;6.586;2022-08-27T02:03:28;18.10;99.90
12180;DHT22;6153;51.490;6.586;2022-08-27T02:06:29;18.10;99.90
12180;DHT22;6153;51.490;6.586;2022-08-27T02:09:30;18.10;99.90
12180;DHT22;6153;51.490;6.586;2022-08-27T02:12:30;18.10;99.90
12180;DHT22;6153;51.490;6.586;2022-08-27T02:15:31;18.10;99.90
12180;DHT22;6153;51.490;6.586;2022-08-27T02:18:33;18.10;99.90
12180;DHT22;6153;51.490;6.586;2022-08-27T02:21:36;18.10;99.90
12180;DHT22;6153;51.490;6.586;2022-08-27T02:24:36;18.10;99.90
12180;DHT22;6153;51.490;6.586;2022-08-27T02:27:37;18.10;99.90
12180;DHT22;6153;51.490;6.586;2022-08-27T02:30:37;18.10;99.90
12180;DHT22;6153;51.490;6.586;2022-08-27T02:33:38;18.10;99.90
12180;DHT22;6153;51.490;6.586;2022-08-27T02:36:39;18.10;99.90
12180;DHT22;6153;51.490;6.586;2022-08-27T02:39:39;18.00;99.90
12180;DHT22;6153;51.490;6.586;2022-08-27T02:42:40;18.00;99.90
12180;DHT22;6153;51.490;6.586;2022-08-27T02:45:40;18.00;99.90
12180;DHT22;6153;51.490;6.586;2022-08-27T02:48:41;18.00;99.90
12180;DHT22;6153;51.490;6.586;2022-08-27T02:51:43;18.00;99.90
12180;DHT22;6153;51.490;6.586;2022-08-27T02:54:44;18.00;99.90
12180;DHT22;6153;51.490;6.586;2022-08-27T02:57:45;18.00;99.90
12180;DHT22;6153;51.490;6.586;2022-08-27T03:00:46;18.10;99.90
12180;DHT22;6153;51.490;6.586;2022-08-27T03:03:47;18.00;99.90
12180;DHT22;6153;51.490;6.586;2022-08-27T03:06:48;18.00;99.90
12180;DHT22;6153;51.490;6.586;2022-08-27T03:09:49;18.00;99.90
12180;DHT22;6153;51.490;6.586;2022-08-27T03:12:49;18.00;99.90
12180;DHT22;6153;51.490;6.586;2022-08-27T03:15:51;18.00;99.90
12180;DHT22;6153;51.490;6.586;2022-08-27T03:18:52;18.00;99.90
12180;DHT22;6153;51.490;6.586;2022-08-27T03:21:52;18.00;99.90
12180;DHT22;6153;51.490;6.586;2022-08-27T03:24:52;18.00;99.90
12180;DHT22;6153;51.490;6.586;2022-08-27T03:27:54;18.00;99.90
12180;DHT22;6153;51.490;6.586;2022-08-27T03:30:57;18.00;99.90
12180;DHT22;6153;51.490;6.586;2022-08-27T03:34:00;17.90;99.90
12180;DHT22;6153;51.490;6.586;2022-08-27T03:37:01;18.00;99.90
12180;DHT22;6153;51.490;6.586;2022-08-27T03:40:02;17.90;99.90
12180;DHT22;6153;51.490;6.586;2022-08-27T03:43:03;17.90;99.90
12180;DHT22;6153;51.490;6.586;2022-08-27T03:46:03;17.90;99.90
12180;DHT22;6153;51.490;6.586;2022-08-27T03:49:05;17.90;99.90
12180;DHT22;6153;51.490;6.586;2022-08-27T03:52:06;17.80;99.90
12180;DHT22;6153;51.490;6.586;2022-08-27T03:55:07;17.80;99.90
12180;DHT22;6153;51.490;6.586;2022-08-27T03:58:08;17.80;99.90
12180;DHT22;6153;51.490;6.586;2022-08-27T04:01:09;17.80;99.90
12180;DHT22;6153;51.490;6.586;2022-08-27T04:04:10;17.80;99.90
12180;DHT22;6153;51.490;6.586;2022-08-27T04:07:12;17.80;99.90
12180;DHT22;6153;51.490;6.586;2022-08-27T04:10:13;17.90;99.90
12180;DHT22;6153;51.490;6.586;2022-08-27T04:13:13;17.90;99.90
12180;DHT22;6153;51.490;6.586;2022-08-27T04:16:15;17.90;99.90
12180;DHT22;6153;51.490;6.586;2022-08-27T04:19:15;17.90;99.90
12180;DHT22;6153;51.490;6.586;2022-08-27T04:22:16;17.90;99.90
12180;DHT22;6153;51.490;6.586;2022-08-27T04:25:16;17.90;99.90
12180;DHT22;6153;51.490;6.586;2022-08-27T04:28:17;17.90;99.90
12180;DHT22;6153;51.490;6.586;2022-08-27T04:31:17;17.90;99.90
12180;DHT22;6153;51.490;6.586;2022-08-27T04:34:19;17.90;99.90
12180;DHT22;6153;51.490;6.586;2022-08-27T04:37:20;17.80;99.90
12180;DHT22;6153;51.490;6.586;2022-08-27T04:40:20;17.80;99.90
12180;DHT22;6153;51.490;6.586;2022-08-27T04:43:20;17.90;99.90
12180;DHT22;6153;51.490;6.586;2022-08-27T04:46:22;17.80;99.90
12180;DHT22;6153;51.490;6.586;2022-08-27T04:49:23;17.90;99.90
12180;DHT22;6153;51.490;6.586;2022-08-27T04:52:24;17.90;99.90
12180;DHT22;6153;51.490;6.586;2022-08-27T04:55:25;17.80;99.90
12180;DHT22;6153;51.490;6.586;2022-08-27T04:58:25;17.80;99.90
12180;DHT22;6153;51.490;6.586;2022-08-27T05:01:26;17.80;99.90
12180;DHT22;6153;51.490;6.586;2022-08-27T05:04:27;17.80;99.90
12180;DHT22;6153;51.490;6.586;2022-08-27T05:07:29;17.80;99.90
12180;DHT22;6153;51.490;6.586;2022-08-27T05:10:30;17.80;99.90
12180;DHT22;6153;51.490;6.586;2022-08-27T05:13:30;17.80;99.90
12180;DHT22;6153;51.490;6.586;2022-08-27T05:16:31;17.80;99.90
12180;DHT22;6153;51.490;6.586;2022-08-27T05:19:31;17.80;99.90
12180;DHT22;6153;51.490;6.586;2022-08-27T05:22:32;17.80;99.90
12180;DHT22;6153;51.490;6.586;2022-08-27T05:25:36;17.70;99.90
12180;DHT22;6153;51.490;6.586;2022-08-27T05:28:37;17.70;99.90
12180;DHT22;6153;51.490;6.586;2022-08-27T05:31:38;17.80;99.90
12180;DHT22;6153;51.490;6.586;2022-08-27T05:34:38;17.80;99.90
12180;DHT22;6153;51.490;6.586;2022-08-27T05:37:39;17.70;99.90
12180;DHT22;6153;51.490;6.586;2022-08-27T05:40:40;17.70;99.90
12180;DHT22;6153;51.490;6.586;2022-08-27T05:43:41;17.70;99.90
12180;DHT22;6153;51.490;6.586;2022-08-27T05:46:42;17.80;99.90
12180;DHT22;6153;51.490;6.586;2022-08-27T05:49:42;17.80;99.90
12180;DHT22;6153;51.490;6.586;2022-08-27T05:52:43;17.80;99.90
12180;DHT22;6153;51.490;6.586;2022-08-27T05:55:44;17.80;99.90
12180;DHT22;6153;51.490;6.586;2022-08-27T05:58:45;17.90;99.90
12180;DHT22;6153;51.490;6.586;2022-08-27T06:02:05;17.90;99.90
12180;DHT22;6153;51.490;6.586;2022-08-27T06:05:06;17.80;99.90
12180;DHT22;6153;51.490;6.586;2022-08-27T06:08:06;17.70;99.90
12180;DHT22;6153;51.490;6.586;2022-08-27T06:11:07;17.80;99.90
12180;DHT22;6153;51.490;6.586;2022-08-27T06:14:07;18.00;99.90
12180;DHT22;6153;51.490;6.586;2022-08-27T06:17:08;18.10;99.90
12180;DHT22;6153;51.490;6.586;2022-08-27T06:20:08;18.00;99.90
12180;DHT22;6153;51.490;6.586;2022-08-27T06:23:10;18.00;99.90
12180;DHT22;6153;51.490;6.586;2022-08-27T06:26:11;17.90;99.90
12180;DHT22;6153;51.490;6.586;2022-08-27T06:29:12;18.00;99.90
12180;DHT22;6153;51.490;6.586;2022-08-27T06:32:13;18.00;99.90
12180;DHT22;6153;51.490;6.586;2022-08-27T06:35:14;18.10;99.90
12180;DHT22;6153;51.490;6.586;2022-08-27T06:38:14;18.00;99.90
12180;DHT22;6153;51.490;6.586;2022-08-27T06:41:16;18.00;99.90
12180;DHT22;6153;51.490;6.586;2022-08-27T06:44:17;18.00;99.90
12180;DHT22;6153;51.490;6.586;2022-08-27T06:47:17;18.00;99.90
12180;DHT22;6153;51.490;6.586;2022-08-27T06:50:18;18.10;99.90
12180;DHT22;6153;51.490;6.586;2022-08-27T06:53:19;18.10;99.90
12180;DHT22;6153;51.490;6.586;2022-08-27T06:56:20;18.10;99.90
12180;DHT22;6153;51.490;6.586;2022-08-27T06:59:20;18.10;99.90
12180;DHT22;6153;51.490;6.586;2022-08-27T07:02:21;18.00;99.90
12180;DHT22;6153;51.490;6.586;2022-08-27T07:05:21;18.10;99.90
12180;DHT22;6153;51.490;6.586;2022-08-27T07:08:22;18.10;99.90
12180;DHT22;6153;51.490;6.586;2022-08-27T07:11:23;18.10;99.90
12180;DHT22;6153;51.490;6.586;2022-08-27T07:14:23;18.10;99.90
12180;DHT22;6153;51.490;6.586;2022-08-27T07:17:24;18.10;99.90
12180;DHT22;6153;51.490;6.586;2022-08-27T07:20:24;18.10;99.90
12180;DHT22;6153;51.490;6.586;2022-08-27T07:23:25;18.10;99.90
12180;DHT22;6153;51.490;6.586;2022-08-27T07:26:25;18.10;99.90
12180;DHT22;6153;51.490;6.586;2022-08-27T07:29:26;18.10;99.90
12180;DHT22;6153;51.490;6.586;2022-08-27T07:32:26;18.00;99.90
12180;DHT22;6153;51.490;6.586;2022-08-27T07:35:27;18.00;99.90
12180;DHT22;6153;51.490;6.586;2022-08-27T07:38:27;18.10;99.90
12180;DHT22;6153;51.490;6.586;2022-08-27T07:41:28;18.10;99.90
12180;DHT22;6153;51.490;6.586;2022-08-27T07:44:29;18.10;99.90
12180;DHT22;6153;51.490;6.586;2022-08-27T07:47:30;18.10;99.90
12180;DHT22;6153;51.490;6.586;2022-08-27T07:50:32;18.20;99.90
12180;DHT22;6153;51.490;6.586;2022-08-27T07:53:32;18.40;99.90
12180;DHT22;6153;51.490;6.586;2022-08-27T07:56:33;18.50;99.90
12180;DHT22;6153;51.490;6.586;2022-08-27T07:59:34;18.60;99.90
12180;DHT22;6153;51.490;6.586;2022-08-27T08:02:35;18.50;99.90
12180;DHT22;6153;51.490;6.586;2022-08-27T08:05:40;18.50;99.90
12180;DHT22;6153;51.490;6.586;2022-08-27T08:08:40;18.40;99.90
12180;DHT22;6153;51.490;6.586;2022-08-27T08:11:41;18.60;99.90
12180;DHT22;6153;51.490;6.586;2022-08-27T08:14:41;18.60;99.90
12180;DHT22;6153;51.490;6.586;2022-08-27T08:17:42;18.60;99.90
12180;DHT22;6153;51.490;6.586;2022-08-27T08:20:43;18.60;99.90
12180;DHT22;6153;51.490;6.586;2022-08-27T08:23:44;18.60;99.90
12180;DHT22;6153;51.490;6.586;2022-08-27T08:26:44;18.70;99.90
12180;DHT22;6153;51.490;6.586;2022-08-27T08:29:45;18.80;99.90
12180;DHT22;6153;51.490;6.586;2022-08-27T08:32:46;18.90;99.90
12180;DHT22;6153;51.490;6.586;2022-08-27T08:35:47;19.00;99.90
12180;DHT22;6153;51.490;6.586;2022-08-27T08:38:50;19.20;99.90
12180;DHT22;6153;51.490;6.586;2022-08-27T08:41:52;19.10;99.90
12180;DHT22;6153;51.490;6.586;2022-08-27T08:44:53;19.30;99.90
12180;DHT22;6153;51.490;6.586;2022-08-27T08:48:05;19.20;99.90
12180;DHT22;6153;51.490;6.586;2022-08-27T08:51:11;19.30;99.90
12180;DHT22;6153;51.490;6.586;2022-08-27T08:54:22;19.40;99.90
12180;DHT22;6153;51.490;6.586;2022-08-27T08:57:26;19.40;99.90
12180;DHT22;6153;51.490;6.586;2022-08-27T09:00:27;19.50;99.90
12180;DHT22;6153;51.490;6.586;2022-08-27T09:03:28;19.70;99.90
12180;DHT22;6153;51.490;6.586;2022-08-27T09:06:46;19.60;99.90
12180;DHT22;6153;51.490;6.586;2022-08-27T09:10:21;19.70;99.90
12180;DHT22;6153;51.490;6.586;2022-08-27T09:13:27;19.70;99.90
12180;DHT22;6153;51.490;6.586;2022-08-27T09:16:30;20.00;99.90
12180;DHT22;6153;51.490;6.586;2022-08-27T09:19:31;19.90;99.90
12180;DHT22;6153;51.490;6.586;2022-08-27T09:22:47;19.90;99.90
12180;DHT22;6153;51.490;6.586;2022-08-27T09:25:50;20.00;99.90
12180;DHT22;6153;51.490;6.586;2022-08-27T09:29:04;19.90;99.90
12180;DHT22;6153;51.490;6.586;2022-08-27T09:32:23;20.20;99.90
12180;DHT22;6153;51.490;6.586;2022-08-27T09:35:26;20.30;99.90
12180;DHT22;6153;51.490;6.586;2022-08-27T09:38:30;20.20;99.90
12180;DHT22;6153;51.490;6.586;2022-08-27T09:41:44;20.30;99.90
12180;DHT22;6153;51.490;6.586;2022-08-27T09:44:46;20.30;99.90
12180;DHT22;6153;51.490;6.586;2022-08-27T09:47:52;20.50;99.90
12180;DHT22;6153;51.490;6.586;2022-08-27T09:50:57;20.60;99.90
12180;DHT22;6153;51.490;6.586;2022-08-27T09:54:00;20.40;99.90
12180;DHT22;6153;51.490;6.586;2022-08-27T09:57:01;20.50;99.90
12180;DHT22;6153;51.490;6.586;2022-08-27T10:00:06;20.70;99.90
12180;DHT22;6153;51.490;6.586;2022-08-27T10:03:08;20.60;99.90
12180;DHT22;6153;51.490;6.586;2022-08-27T10:06:09;20.70;99.90
12180;DHT22;6153;51.490;6.586;2022-08-27T10:09:23;20.80;99.90
12180;DHT22;6153;51.490;6.586;2022-08-27T10:12:58;21.90;99.90
12180;DHT22;6153;51.490;6.586;2022-08-27T10:22:57;23.20;99.90
12180;DHT22;6153;51.490;6.586;2022-08-27T10:26:14;23.30;99.90
12180;DHT22;6153;51.490;6.586;2022-08-27T10:32:48;23.00;99.90
12180;DHT22;6153;51.490;6.586;2022-08-27T10:36:09;22.90;99.90
12180;DHT22;6153;51.490;6.586;2022-08-27T10:52:24;22.90;99.90
12180;DHT22;6153;51.490;6.586;2022-08-27T10:55:37;22.70;99.90
12180;DHT22;6153;51.490;6.586;2022-08-27T11:05:16;22.70;99.90
12180;DHT22;6153;51.490;6.586;2022-08-27T11:11:42;23.60;99.90
12180;DHT22;6153;51.490;6.586;2022-08-27T11:14:46;22.90;99.90
12180;DHT22;6153;51.490;6.586;2022-08-27T11:20:57;22.60;99.90
12180;DHT22;6153;51.490;6.586;2022-08-27T11:24:09;22.70;99.90
12180;DHT22;6153;51.490;6.586;2022-08-27T11:27:20;22.80;99.90
12180;DHT22;6153;51.490;6.586;2022-08-27T11:33:34;22.60;99.90
12180;DHT22;6153;51.490;6.586;2022-08-27T11:39:50;22.50;99.90
12180;DHT22;6153;51.490;6.586;2022-08-27T11:42:54;22.50;99.90
12180;DHT22;6153;51.490;6.586;2022-08-27T11:45:58;22.50;99.90
12180;DHT22;6153;51.490;6.586;2022-08-27T11:49:00;22.60;99.90
12180;DHT22;6153;51.490;6.586;2022-08-27T11:52:03;22.60;99.90
12180;DHT22;6153;51.490;6.586;2022-08-27T11:55:12;22.60;99.90
12180;DHT22;6153;51.490;6.586;2022-08-27T12:01:25;22.30;99.90
12180;DHT22;6153;51.490;6.586;2022-08-27T12:07:32;22.80;99.90
12180;DHT22;6153;51.490;6.586;2022-08-27T12:10:38;22.80;99.90
12180;DHT22;6153;51.490;6.586;2022-08-27T12:20:00;22.70;99.90
12180;DHT22;6153;51.490;6.586;2022-08-27T12:23:10;22.70;99.90
12180;DHT22;6153;51.490;6.586;2022-08-27T12:26:37;22.80;99.90
12180;DHT22;6153;51.490;6.586;2022-08-27T12:32:51;23.20;99.90
12180;DHT22;6153;51.490;6.586;2022-08-27T12:35:52;23.00;99.90
12180;DHT22;6153;51.490;6.586;2022-08-27T12:38:55;22.80;99.90
12180;DHT22;6153;51.490;6.586;2022-08-27T12:41:55;23.10;99.90
12180;DHT22;6153;51.490;6.586;2022-08-27T12:44:56;23.10;99.90
12180;DHT22;6153;51.490;6.586;2022-08-27T12:47:57;23.20;99.90
12180;DHT22;6153;51.490;6.586;2022-08-27T12:51:02;23.10;99.90
12180;DHT22;6153;51.490;6.586;2022-08-27T13:00:32;23.00;99.90
12180;DHT22;6153;51.490;6.586;2022-08-27T13:03:37;23.20;99.90
12180;DHT22;6153;51.490;6.586;2022-08-27T13:06:42;23.40;99.90
12180;DHT22;6153;51.490;6.586;2022-08-27T13:09:43;23.20;99.90
12180;DHT22;6153;51.490;6.586;2022-08-27T13:12:44;23.20;99.90
12180;DHT22;6153;51.490;6.586;2022-08-27T13:15:46;23.00;99.90
12180;DHT22;6153;51.490;6.586;2022-08-27T13:18:48;23.00;99.90
12180;DHT22;6153;51.490;6.586;2022-08-27T13:21:49;23.50;99.90
12180;DHT22;6153;51.490;6.586;2022-08-27T13:24:52;23.60;99.90
12180;DHT22;6153;51.490;6.586;2022-08-27T13:27:57;23.70;99.90
12180;DHT22;6153;51.490;6.586;2022-08-27T13:30:59;24.00;99.90
12180;DHT22;6153;51.490;6.586;2022-08-27T13:34:01;24.10;99.90
12180;DHT22;6153;51.490;6.586;2022-08-27T13:37:04;23.90;99.90
12180;DHT22;6153;51.490;6.586;2022-08-27T13:40:05;23.90;99.90
12180;DHT22;6153;51.490;6.586;2022-08-27T13:43:06;25.00;99.90
12180;DHT22;6153;51.490;6.586;2022-08-27T13:46:15;24.80;99.90
12180;DHT22;6153;51.490;6.586;2022-08-27T13:49:19;24.40;99.90
12180;DHT22;6153;51.490;6.586;2022-08-27T13:52:29;24.60;99.90
12180;DHT22;6153;51.490;6.586;2022-08-27T13:55:30;24.60;99.90
12180;DHT22;6153;51.490;6.586;2022-08-27T13:58:31;24.60;99.90
12180;DHT22;6153;51.490;6.586;2022-08-27T14:01:32;24.90;99.90
12180;DHT22;6153;51.490;6.586;2022-08-27T14:08:13;25.70;99.90
12180;DHT22;6153;51.490;6.586;2022-08-27T14:11:16;25.20;99.90
12180;DHT22;6153;51.490;6.586;2022-08-27T14:14:21;25.20;99.90
12180;DHT22;6153;51.490;6.586;2022-08-27T14:17:23;25.30;99.90
12180;DHT22;6153;51.490;6.586;2022-08-27T14:20:24;25.30;99.90
12180;DHT22;6153;51.490;6.586;2022-08-27T14:23:25;25.20;99.90
12180;DHT22;6153;51.490;6.586;2022-08-27T14:26:26;25.10;99.90
12180;DHT22;6153;51.490;6.586;2022-08-27T14:29:26;25.90;99.90
12180;DHT22;6153;51.490;6.586;2022-08-27T14:32:27;25.50;99.90
12180;DHT22;6153;51.490;6.586;2022-08-27T14:35:28;25.80;99.90
12180;DHT22;6153;51.490;6.586;2022-08-27T14:38:30;25.50;99.90
12180;DHT22;6153;51.490;6.586;2022-08-27T14:41:32;25.20;99.90
12180;DHT22;6153;51.490;6.586;2022-08-27T14:44:33;24.60;99.90
12180;DHT22;6153;51.490;6.586;2022-08-27T14:47:35;24.20;99.90
12180;DHT22;6153;51.490;6.586;2022-08-27T14:50:36;23.80;99.90
12180;DHT22;6153;51.490;6.586;2022-08-27T14:53:37;23.50;99.90
12180;DHT22;6153;51.490;6.586;2022-08-27T14:56:38;23.70;99.90
12180;DHT22;6153;51.490;6.586;2022-08-27T14:59:38;23.60;99.90
12180;DHT22;6153;51.490;6.586;2022-08-27T15:02:41;23.40;99.90
12180;DHT22;6153;51.490;6.586;2022-08-27T15:05:43;23.40;99.90
12180;DHT22;6153;51.490;6.586;2022-08-27T15:08:44;23.60;99.90
12180;DHT22;6153;51.490;6.586;2022-08-27T15:11:46;23.90;99.90
12180;DHT22;6153;51.490;6.586;2022-08-27T15:14:47;24.00;99.90
12180;DHT22;6153;51.490;6.586;2022-08-27T15:17:47;23.80;99.90
12180;DHT22;6153;51.490;6.586;2022-08-27T15:20:48;23.90;99.90
12180;DHT22;6153;51.490;6.586;2022-08-27T15:23:49;23.90;99.90
12180;DHT22;6153;51.490;6.586;2022-08-27T15:26:54;23.70;99.90
12180;DHT22;6153;51.490;6.586;2022-08-27T15:29:58;23.50;99.90
12180;DHT22;6153;51.490;6.586;2022-08-27T15:32:59;23.60;99.90
12180;DHT22;6153;51.490;6.586;2022-08-27T15:35:59;23.20;99.90
12180;DHT22;6153;51.490;6.586;2022-08-27T15:39:00;23.20;99.90
12180;DHT22;6153;51.490;6.586;2022-08-27T15:42:01;23.30;99.90
12180;DHT22;6153;51.490;6.586;2022-08-27T15:45:02;23.20;99.90
12180;DHT22;6153;51.490;6.586;2022-08-27T15:48:03;23.10;99.90
12180;DHT22;6153;51.490;6.586;2022-08-27T15:51:07;22.80;99.90
12180;DHT22;6153;51.490;6.586;2022-08-27T15:54:09;22.90;99.90
12180;DHT22;6153;51.490;6.586;2022-08-27T15:57:09;22.90;99.90
12180;DHT22;6153;51.490;6.586;2022-08-27T16:00:10;22.90;99.90
12180;DHT22;6153;51.490;6.586;2022-08-27T16:03:11;22.90;99.90
12180;DHT22;6153;51.490;6.586;2022-08-27T16:06:13;22.80;99.90
12180;DHT22;6153;51.490;6.586;2022-08-27T16:09:14;22.70;99.90
12180;DHT22;6153;51.490;6.586;2022-08-27T16:12:14;22.70;99.90
12180;DHT22;6153;51.490;6.586;2022-08-27T16:15:15;22.60;99.90
12180;DHT22;6153;51.490;6.586;2022-08-27T16:18:17;22.60;99.90
12180;DHT22;6153;51.490;6.586;2022-08-27T16:21:20;22.70;99.90
12180;DHT22;6153;51.490;6.586;2022-08-27T16:24:21;22.50;99.90
12180;DHT22;6153;51.490;6.586;2022-08-27T16:27:22;22.50;99.90
12180;DHT22;6153;51.490;6.586;2022-08-27T16:30:22;22.60;99.90
12180;DHT22;6153;51.490;6.586;2022-08-27T16:33:23;22.50;99.90
12180;DHT22;6153;51.490;6.586;2022-08-27T16:36:23;22.40;99.90
12180;DHT22;6153;51.490;6.586;2022-08-27T16:39:24;22.30;99.90
12180;DHT22;6153;51.490;6.586;2022-08-27T16:42:24;22.40;99.90
12180;DHT22;6153;51.490;6.586;2022-08-27T16:45:25;22.40;99.90
12180;DHT22;6153;51.490;6.586;2022-08-27T16:48:27;22.30;99.90
12180;DHT22;6153;51.490;6.586;2022-08-27T16:51:46;22.30;99.90
12180;DHT22;6153;51.490;6.586;2022-08-27T16:54:47;22.10;99.90
12180;DHT22;6153;51.490;6.586;2022-08-27T16:57:48;22.10;99.90
12180;DHT22;6153;51.490;6.586;2022-08-27T17:00:52;22.20;99.90
12180;DHT22;6153;51.490;6.586;2022-08-27T17:03:54;22.00;99.90
12180;DHT22;6153;51.490;6.586;2022-08-27T17:06:54;22.00;99.90
12180;DHT22;6153;51.490;6.586;2022-08-27T17:09:55;21.90;99.90
12180;DHT22;6153;51.490;6.586;2022-08-27T17:12:58;21.90;99.90
12180;DHT22;6153;51.490;6.586;2022-08-27T17:15:59;21.80;99.90
12180;DHT22;6153;51.490;6.586;2022-08-27T17:25:25;21.80;99.90
12180;DHT22;6153;51.490;6.586;2022-08-27T17:28:26;21.80;99.90
12180;DHT22;6153;51.490;6.586;2022-08-27T17:31:30;21.70;99.90
12180;DHT22;6153;51.490;6.586;2022-08-27T17:47:27;21.60;99.90
12180;DHT22;6153;51.490;6.586;2022-08-27T17:53:55;21.60;99.90
12180;DHT22;6153;51.490;6.586;2022-08-27T17:56:57;21.60;99.90
12180;DHT22;6153;51.490;6.586;2022-08-27T17:59:59;21.50;99.90
12180;DHT22;6153;51.490;6.586;2022-08-27T18:37:50;21.30;99.90
12180;DHT22;6153;51.490;6.586;2022-08-27T18:40:51;21.30;99.90
12180;DHT22;6153;51.490;6.586;2022-08-27T18:43:53;21.40;99.90
12180;DHT22;6153;51.490;6.586;2022-08-27T18:46:54;21.30;99.90
12180;DHT22;6153;51.490;6.586;2022-08-27T18:49:54;21.30;99.90
12180;DHT22;6153;51.490;6.586;2022-08-27T18:52:55;21.30;99.90
12180;DHT22;6153;51.490;6.586;2022-08-27T18:55:56;21.20;99.90
12180;DHT22;6153;51.490;6.586;2022-08-27T18:58:56;21.20;99.90
12180;DHT22;6153;51.490;6.586;2022-08-27T19:01:57;21.20;99.90
12180;DHT22;6153;51.490;6.586;2022-08-27T19:04:58;21.10;99.90
12180;DHT22;6153;51.490;6.586;2022-08-27T19:07:59;21.10;99.90
12180;DHT22;6153;51.490;6.586;2022-08-27T19:11:00;21.10;99.90
12180;DHT22;6153;51.490;6.586;2022-08-27T19:14:00;21.10;99.90
12180;DHT22;6153;51.490;6.586;2022-08-27T19:20:22;21.10;99.90
12180;DHT22;6153;51.490;6.586;2022-08-27T19:23:22;21.10;99.90
12180;DHT22;6153;51.490;6.586;2022-08-27T19:26:23;21.00;99.90
12180;DHT22;6153;51.490;6.586;2022-08-27T19:29:24;21.00;99.90
12180;DHT22;6153;51.490;6.586;2022-08-27T19:32:26;21.00;99.90
12180;DHT22;6153;51.490;6.586;2022-08-27T19:35:26;21.00;99.90
12180;DHT22;6153;51.490;6.586;2022-08-27T19:38:27;21.00;99.90
12180;DHT22;6153;51.490;6.586;2022-08-27T19:41:28;21.00;99.90
12180;DHT22;6153;51.490;6.586;2022-08-27T19:44:29;21.00;99.90
12180;DHT22;6153;51.490;6.586;2022-08-27T19:47:30;20.90;99.90
12180;DHT22;6153;51.490;6.586;2022-08-27T19:50:32;20.90;99.90
12180;DHT22;6153;51.490;6.586;2022-08-27T19:53:32;20.90;99.90
12180;DHT22;6153;51.490;6.586;2022-08-27T19:56:47;20.90;99.90
12180;DHT22;6153;51.490;6.586;2022-08-27T19:59:50;20.90;99.90
12180;DHT22;6153;51.490;6.586;2022-08-27T20:02:52;20.80;99.90
12180;DHT22;6153;51.490;6.586;2022-08-27T20:05:53;20.80;99.90
12180;DHT22;6153;51.490;6.586;2022-08-27T20:08:53;20.80;99.90
12180;DHT22;6153;51.490;6.586;2022-08-27T20:11:54;20.80;99.90
12180;DHT22;6153;51.490;6.586;2022-08-27T20:14:55;20.80;99.90
12180;DHT22;6153;51.490;6.586;2022-08-27T20:17:56;20.70;99.90
12180;DHT22;6153;51.490;6.586;2022-08-27T20:20:59;20.70;99.90
12180;DHT22;6153;51.490;6.586;2022-08-27T20:24:00;20.70;99.90
12180;DHT22;6153;51.490;6.586;2022-08-27T20:27:00;20.70;99.90
12180;DHT22;6153;51.490;6.586;2022-08-27T20:30:01;20.70;99.90
12180;DHT22;6153;51.490;6.586;2022-08-27T20:33:03;20.70;99.90
12180;DHT22;6153;51.490;6.586;2022-08-27T20:36:04;20.70;99.90
12180;DHT22;6153;51.490;6.586;2022-08-27T20:39:05;20.60;99.90
12180;DHT22;6153;51.490;6.586;2022-08-27T20:42:19;20.60;99.90
12180;DHT22;6153;51.490;6.586;2022-08-27T20:45:25;20.60;99.90
12180;DHT22;6153;51.490;6.586;2022-08-27T20:48:26;20.60;99.90
12180;DHT22;6153;51.490;6.586;2022-08-27T20:51:27;20.50;99.90
12180;DHT22;6153;51.490;6.586;2022-08-27T20:54:28;20.50;99.90
12180;DHT22;6153;51.490;6.586;2022-08-27T20:57:29;20.40;99.90
12180;DHT22;6153;51.490;6.586;2022-08-27T21:00:31;20.40;99.90
12180;DHT22;6153;51.490;6.586;2022-08-27T21:03:31;20.30;99.90
12180;DHT22;6153;51.490;6.586;2022-08-27T21:06:32;20.20;99.90
12180;DHT22;6153;51.490;6.586;2022-08-27T21:09:33;20.10;99.90
12180;DHT22;6153;51.490;6.586;2022-08-27T21:12:34;20.00;99.90
12180;DHT22;6153;51.490;6.586;2022-08-27T21:15:34;20.00;99.90
12180;DHT22;6153;51.490;6.586;2022-08-27T21:18:35;19.90;99.90
12180;DHT22;6153;51.490;6.586;2022-08-27T21:21:36;19.90;99.90
12180;DHT22;6153;51.490;6.586;2022-08-27T21:24:36;19.90;99.90
12180;DHT22;6153;51.490;6.586;2022-08-27T21:27:37;19.80;99.90
12180;DHT22;6153;51.490;6.586;2022-08-27T21:30:38;19.80;99.90
12180;DHT22;6153;51.490;6.586;2022-08-27T21:33:39;19.70;99.90
12180;DHT22;6153;51.490;6.586;2022-08-27T21:36:39;19.60;99.90
12180;DHT22;6153;51.490;6.586;2022-08-27T21:39:43;19.60;99.90
12180;DHT22;6153;51.490;6.586;2022-08-27T21:42:46;19.50;99.90